Time;durP1;ratioP1;P1;durP2;ratioP2;P2;SDS_P1;SDS_P2;PMS_P1;PMS_P2;Temp;Humidity;BMP_temperature;BMP_pressure;BME280_temperature;BME280_humidity;BME280_pressure;Samples;Min_cycle;Max_cycle;Signal;HPM_P1;HPM_P2
2022/07/12 00:04:25;;;;;;;0.73;0.40;;;;;;;14.36;55.26;100592.00;10543472;28;20493;-68
2022/07/12 00:09:27;;;;;;;0.60;0.50;;;;;;;14.71;55.27;100589.81;10543369;28;20063;-69
2022/07/12 00:14:29;;;;;;;5.25;0.63;;;;;;;14.43;56.79;100598.75;10543737;28;20044;-69
2022/07/12 00:19:32;;;;;;;0.93;0.40;;;;;;;14.46;57.37;100590.72;10525538;28;20055;-69
2022/07/12 00:24:33;;;;;;;2.85;0.70;;;;;;;14.28;59.33;100592.28;10544554;28;20062;-68
2022/07/12 00:29:35;;;;;;;2.80;0.70;;;;;;;14.24;60.76;100598.63;10508487;28;20053;-69
2022/07/12 00:34:36;;;;;;;2.30;0.77;;;;;;;14.11;63.51;100594.72;10543727;28;20048;-69
2022/07/12 00:39:38;;;;;;;1.48;0.52;;;;;;;14.13;64.07;100590.25;10544357;28;20046;-69
2022/07/12 00:44:40;;;;;;;0.88;0.70;;;;;;;14.08;64.51;100597.50;10543566;28;20071;-69
2022/07/12 00:49:41;;;;;;;1.60;0.60;;;;;;;14.05;65.20;100601.09;10542620;28;20120;-69
2022/07/12 00:54:43;;;;;;;1.77;0.68;;;;;;;14.23;66.54;100593.41;10524221;28;20036;-69
2022/07/12 00:59:45;;;;;;;0.73;0.70;;;;;;;14.22;66.13;100607.53;10541632;28;20044;-69
2022/07/12 01:04:47;;;;;;;2.58;0.73;;;;;;;14.01;68.95;100607.41;10541288;28;20055;-69
2022/07/12 01:09:49;;;;;;;1.75;0.90;;;;;;;14.11;69.38;100611.44;10541576;28;20093;-70
2022/07/12 01:14:51;;;;;;;0.98;0.77;;;;;;;14.12;69.98;100617.56;10541110;28;20044;-69
2022/07/12 01:19:56;;;;;;;2.25;1.05;;;;;;;14.31;69.36;100610.69;10541604;28;20382;-69
2022/07/12 01:24:59;;;;;;;0.65;0.65;;;;;;;14.35;69.82;100614.09;10540733;28;20489;-69
2022/07/12 01:30:03;;;;;;;1.23;1.00;;;;;;;14.42;72.15;100623.50;10540560;28;20503;-69
2022/07/12 01:35:07;;;;;;;1.30;0.90;;;;;;;14.48;71.57;100623.31;10540926;28;20044;-69
2022/07/12 01:40:11;;;;;;;2.35;0.90;;;;;;;14.38;70.78;100628.03;10539574;28;20051;-69
2022/07/12 01:45:12;;;;;;;1.30;0.68;;;;;;;14.34;70.77;100631.75;10540404;28;20040;-68
2022/07/12 01:50:14;;;;;;;3.25;0.90;;;;;;;14.36;72.17;100635.19;10521978;28;20036;-68
2022/07/12 01:55:16;;;;;;;1.40;0.93;;;;;;;14.41;72.66;100634.16;10522031;28;20047;-68
2022/07/12 02:00:19;;;;;;;1.38;1.23;;;;;;;14.85;75.63;100635.09;10540171;28;20039;-68
2022/07/12 02:05:21;;;;;;;1.65;1.10;;;;;;;14.73;75.86;100636.44;10540190;28;20068;-68
2022/07/12 02:10:23;;;;;;;2.30;1.30;;;;;;;14.62;78.06;100643.94;10539869;28;20036;-68
2022/07/12 02:15:24;;;;;;;1.83;1.52;;;;;;;14.69;78.54;100642.75;10539932;28;20517;-68
2022/07/12 02:20:26;;;;;;;1.73;1.40;;;;;;;14.86;78.34;100642.97;10522446;28;20044;-68
2022/07/12 02:25:27;;;;;;;3.67;1.80;;;;;;;14.95;79.23;100648.81;10539260;28;20404;-68
2022/07/12 02:30:29;;;;;;;1.70;1.60;;;;;;;15.02;79.18;100647.66;10521919;28;20047;-68
2022/07/12 02:35:31;;;;;;;2.88;1.63;;;;;;;14.87;80.10;100646.47;10521730;28;20055;-69
2022/07/12 02:45:58;;;;;;;2.20;2.08;;;;;;;14.69;81.55;100658.63;10520732;28;20066;-68
2022/07/12 02:51:00;;;;;;;2.05;1.50;;;;;;;14.54;82.38;100657.47;10524701;28;20043;-68
2022/07/12 02:56:02;;;;;;;2.20;1.73;;;;;;;14.56;82.82;100652.97;10547336;28;20071;-68
2022/07/12 03:01:04;;;;;;;2.40;2.00;;;;;;;14.69;81.74;100649.84;10546824;28;20535;-68
2022/07/12 03:06:06;;;;;;;2.13;2.00;;;;;;;14.59;82.62;100652.84;10546778;28;20430;-68
2022/07/12 03:11:07;;;;;;;5.15;2.00;;;;;;;14.61;82.58;100648.38;10546720;28;20051;-68
2022/07/12 03:16:09;;;;;;;3.10;2.03;;;;;;;14.83;82.54;100652.81;10545485;28;20051;-68
2022/07/12 03:21:11;;;;;;;3.75;2.95;;;;;;;14.80;82.52;100659.09;10545240;28;20040;-68
2022/07/12 03:26:13;;;;;;;5.00;2.50;;;;;;;14.81;82.75;100644.94;10545097;28;20456;-68
2022/07/12 03:31:14;;;;;;;3.92;2.80;;;;;;;14.88;82.97;100645.56;10526875;28;20555;-68
2022/07/12 03:36:16;;;;;;;5.57;2.95;;;;;;;14.80;82.70;100650.31;10545169;28;20409;-68
2022/07/12 03:41:18;;;;;;;4.60;3.08;;;;;;;14.61;83.14;100656.31;10545214;28;20032;-68
2022/07/12 03:46:20;;;;;;;3.80;3.30;;;;;;;14.60;84.67;100665.16;10544662;28;20516;-68
2022/07/12 03:51:21;;;;;;;3.55;3.25;;;;;;;14.68;84.83;100662.22;10544741;28;20059;-69
2022/07/12 04:01:43;;;;;;;4.07;3.78;;;;;;;14.87;84.89;100668.53;10544527;28;20085;-70
2022/07/12 04:06:46;;;;;;;4.18;3.75;;;;;;;15.01;84.44;100670.63;10544664;28;20461;-68
2022/07/12 04:11:47;;;;;;;3.75;3.45;;;;;;;14.99;84.85;100675.09;10544405;28;20044;-69
2022/07/12 04:16:49;;;;;;;4.55;4.22;;;;;;;14.84;86.26;100686.31;10543937;28;20055;-69
2022/07/12 04:21:50;;;;;;;4.03;3.75;;;;;;;14.69;87.72;100695.69;10543494;28;20047;-69
2022/07/12 04:26:52;;;;;;;4.10;3.80;;;;;;;14.65;88.41;100694.06;10543161;28;20501;-69
2022/07/12 04:31:54;;;;;;;3.85;3.55;;;;;;;14.83;87.53;100695.16;10525252;28;20044;-69
2022/07/12 04:36:56;;;;;;;4.10;3.80;;;;;;;15.06;86.17;100691.63;10542739;28;20043;-69
2022/07/12 04:41:57;;;;;;;3.85;3.58;;;;;;;15.06;85.91;100695.13;10541998;28;20036;-69
2022/07/12 04:46:59;;;;;;;5.68;5.20;;;;;;;15.27;85.80;100692.53;10541997;28;20408;-69
2022/07/12 04:52:01;;;;;;;5.97;5.57;;;;;;;15.41;85.03;100695.50;10542297;28;20359;-68
2022/07/12 04:57:03;;;;;;;5.32;4.95;;;;;;;15.88;82.94;100695.31;10541474;28;20497;-69
2022/07/12 05:02:04;;;;;;;4.35;4.15;;;;;;;16.15;80.95;100702.03;10541224;28;20040;-68
2022/07/12 05:07:06;;;;;;;5.05;4.75;;;;;;;16.39;79.80;100700.09;10542297;28;20135;-69
2022/07/12 05:12:08;;;;;;;4.53;4.07;;;;;;;16.43;79.73;100695.53;10522984;28;20040;-69
2022/07/12 05:17:10;;;;;;;4.68;4.40;;;;;;;16.71;77.84;100694.25;10522562;28;20048;-69
2022/07/12 05:22:11;;;;;;;4.88;4.50;;;;;;;16.75;76.70;100702.03;10540858;28;20483;-69
2022/07/12 05:27:14;;;;;;;5.18;4.88;;;;;;;16.84;76.88;100695.44;10541542;28;20075;-69
2022/07/12 05:32:15;;;;;;;4.60;4.35;;;;;;;17.06;74.91;100701.44;10541019;28;20062;-69
2022/07/12 05:37:17;;;;;;;4.53;4.22;;;;;;;17.45;72.51;100699.56;10541340;28;20114;-69
2022/07/12 05:42:19;;;;;;;3.88;3.58;;;;;;;17.80;71.17;100708.47;10506321;28;20093;-69
2022/07/12 05:47:21;;;;;;;3.80;3.60;;;;;;;18.03;69.13;100709.94;10540831;28;20048;-69
2022/07/12 05:57:42;;;;;;;4.05;3.72;;;;;;;17.93;68.96;100719.31;10563141;22;20048;-82
2022/07/12 06:02:44;;;;;;;4.03;3.55;;;;;;;18.48;66.97;100722.63;10553534;28;20040;-83
2022/07/12 06:07:46;;;;;;;3.67;3.38;;;;;;;19.02;65.72;100717.91;10553547;28;20074;-83
2022/07/12 06:12:47;;;;;;;4.05;3.75;;;;;;;19.33;63.35;100721.50;10535595;28;20094;-83
2022/07/12 06:17:50;;;;;;;3.50;3.20;;;;;;;19.22;63.20;100731.94;10553601;28;20489;-80
2022/07/12 06:22:52;;;;;;;3.05;2.75;;;;;;;19.50;62.80;100732.06;10530690;28;20127;-83
2022/07/12 06:27:54;;;;;;;4.13;3.00;;;;;;;20.30;58.45;100725.53;10538031;28;20079;-80
2022/07/12 06:32:56;;;;;;;3.72;2.80;;;;;;;19.94;59.25;100735.78;10554939;28;20044;-82
2022/07/12 06:37:57;;;;;;;2.50;2.20;;;;;;;20.12;59.51;100743.53;10531173;28;20134;-81
2022/07/12 06:42:59;;;;;;;2.50;2.30;;;;;;;20.77;57.49;100736.94;10591438;28;20040;-81
2022/07/12 06:48:01;;;;;;;4.07;2.58;;;;;;;20.58;57.90;100740.72;10544422;28;20048;-82
2022/07/12 06:53:02;;;;;;;2.92;2.72;;;;;;;20.59;57.23;100741.63;10563354;28;20051;-81
2022/07/12 06:58:04;;;;;;;2.33;2.13;;;;;;;20.81;57.28;100738.47;10544947;28;20044;-80
2022/07/12 07:03:08;;;;;;;2.33;2.22;;;;;;;21.08;56.20;100743.84;10527306;28;20485;-79
2022/07/12 07:08:10;;;;;;;2.05;1.80;;;;;;;21.36;53.21;100745.63;10558748;28;20044;-80
2022/07/12 07:13:11;;;;;;;1.90;1.80;;;;;;;21.32;55.06;100750.31;10540213;28;20044;-79
2022/07/12 07:18:13;;;;;;;2.10;1.73;;;;;;;21.37;53.73;100747.34;10539469;28;20044;-80
2022/07/12 07:23:16;;;;;;;6.53;1.98;;;;;;;21.29;53.64;100744.25;10539707;28;20070;-79
2022/07/12 07:28:18;;;;;;;1.98;1.55;;;;;;;21.43;52.24;100744.28;10538601;28;20044;-81
2022/07/12 07:33:39;;;;;;;3.00;1.27;;;;;;;21.60;51.47;100738.66;10539538;28;20044;-79
2022/07/12 07:38:41;;;;;;;2.97;1.58;;;;;;;20.61;54.02;100742.38;10538919;28;20048;-81
2022/07/12 07:43:43;;;;;;;2.10;1.50;;;;;;;20.88;54.56;100747.78;10540332;28;20059;-80
2022/07/12 07:48:44;;;;;;;1.75;1.38;;;;;;;21.28;52.85;100743.41;10542141;28;20386;-81
2022/07/12 07:53:46;;;;;;;1.73;1.17;;;;;;;22.08;51.41;100746.13;10571688;28;20043;-78
2022/07/12 07:58:47;;;;;;;1.63;1.00;;;;;;;22.27;49.51;100751.13;10541578;28;20052;-80
2022/07/12 08:03:49;;;;;;;2.45;1.48;;;;;;;22.53;49.13;100755.50;10537144;28;20585;-80
2022/07/12 08:08:51;;;;;;;3.38;1.25;;;;;;;22.35;49.41;100748.75;10537316;28;20040;-80
2022/07/12 08:14:12;;;;;;;2.42;1.00;;;;;;;23.05;45.82;100742.94;10536949;28;20101;-80
2022/07/12 08:19:14;;;;;;;2.05;1.00;;;;;;;22.58;46.42;100744.50;10535945;28;20155;-80
2022/07/12 08:24:15;;;;;;;1.70;1.05;;;;;;;21.88;46.92;100736.81;10557014;28;20046;-79
2022/07/12 08:29:17;;;;;;;1.40;0.90;;;;;;;22.58;44.53;100739.13;10557110;28;20412;-80
2022/07/12 08:34:19;;;;;;;1.60;0.93;;;;;;;22.36;44.79;100729.06;10556728;28;20051;-80
2022/07/12 08:39:21;;;;;;;2.08;0.90;;;;;;;23.03;43.60;100732.31;10538254;28;20044;-79
2022/07/12 08:44:22;;;;;;;1.67;0.75;;;;;;;23.27;42.73;100737.72;10555194;28;20066;-79
2022/07/12 08:49:24;;;;;;;1.42;0.70;;;;;;;22.99;42.12;100719.25;10554588;28;20032;-80
2022/07/12 08:54:26;;;;;;;2.70;0.70;;;;;;;23.16;41.48;100732.28;10534984;28;20048;-80
2022/07/12 08:59:27;;;;;;;2.55;0.60;;;;;;;23.33;41.53;100731.91;10554015;28;20036;-82
2022/07/12 09:04:30;;;;;;;2.03;0.50;;;;;;;24.11;38.49;100722.47;10557373;28;20099;-79
2022/07/12 09:09:37;;;;;;;2.00;0.60;;;;;;;23.63;37.36;100725.19;10558125;28;20060;-79
2022/07/12 09:14:38;;;;;;;2.05;0.38;;;;;;;24.37;37.33;100726.69;10562517;28;20048;-80
2022/07/12 09:19:55;;;;;;;1.73;0.52;;;;;;;24.47;36.05;100729.50;10555252;28;20393;-80
2022/07/12 09:24:57;;;;;;;0.80;0.32;;;;;;;24.55;35.63;100727.06;10559063;28;20532;-79
2022/07/12 09:30:00;;;;;;;0.68;0.45;;;;;;;24.05;37.68;100723.81;10537167;28;20054;-79
2022/07/12 09:40:23;;;;;;;1.17;0.35;;;;;;;25.21;36.11;100715.53;10541951;28;20044;-79
2022/07/12 09:45:25;;;;;;;2.28;0.52;;;;;;;23.96;35.87;100713.78;10550171;28;20055;-78
2022/07/12 09:50:30;;;;;;;0.95;0.35;;;;;;;25.07;35.05;100714.81;10569448;28;20044;-77
2022/07/12 09:55:34;;;;;;;0.30;0.30;;;;;;;25.39;33.80;100712.19;10538305;28;20065;-78
2022/07/12 10:00:36;;;;;;;0.68;0.30;;;;;;;25.45;32.27;100716.19;10565923;28;20075;-80
2022/07/12 10:05:41;;;;;;;2.00;0.52;;;;;;;24.60;32.82;100706.03;10565293;28;20413;-78
2022/07/12 10:10:43;;;;;;;1.88;0.43;;;;;;;24.85;34.11;100699.56;10552477;28;20048;-79
2022/07/12 10:15:47;;;;;;;1.30;0.30;;;;;;;25.52;31.87;100713.84;10589371;28;20107;-79
2022/07/12 10:20:49;;;;;;;0.80;0.30;;;;;;;25.58;31.65;100711.50;10567442;28;20044;-79
2022/07/12 10:25:51;;;;;;;0.30;0.30;;;;;;;25.50;31.71;100715.81;10559777;28;20056;-79
2022/07/12 10:30:53;;;;;;;0.73;0.30;;;;;;;25.19;30.81;100704.03;10542935;28;20105;-78
2022/07/12 10:36:05;;;;;;;1.33;0.25;;;;;;;25.15;31.08;100704.31;10535130;28;20052;-79
2022/07/12 10:41:20;;;;;;;1.30;0.30;;;;;;;25.46;31.71;100690.16;10550275;28;20516;-79
2022/07/12 10:46:25;;;;;;;5.28;0.20;;;;;;;26.79;29.79;100703.78;10549631;28;20115;-79
2022/07/12 10:51:27;;;;;;;0.40;0.20;;;;;;;26.78;28.92;100691.25;10568666;28;20063;-79
2022/07/12 10:56:32;;;;;;;0.35;0.20;;;;;;;26.73;28.69;100681.88;10565940;28;20115;-79
2022/07/12 11:01:33;;;;;;;0.30;0.30;;;;;;;27.22;28.01;100691.81;10555428;28;20104;-80
2022/07/12 11:06:38;;;;;;;1.95;0.35;;;;;;;27.64;28.15;100686.16;10552870;28;20286;-79
2022/07/12 11:11:43;;;;;;;0.35;0.20;;;;;;;27.12;29.01;100685.56;10541160;28;20054;-79
2022/07/12 11:16:47;;;;;;;0.50;0.20;;;;;;;26.09;29.67;100677.59;10549083;28;20104;-78
2022/07/12 11:21:54;;;;;;;2.42;0.35;;;;;;;25.13;30.46;100691.97;10550716;28;20100;-79
2022/07/12 11:26:57;;;;;;;0.32;0.30;;;;;;;25.79;30.32;100675.69;10572078;28;20119;-78
2022/07/12 11:32:05;;;;;;;1.90;0.22;;;;;;;25.97;29.36;100682.19;10575241;28;20044;-77
2022/07/12 11:37:12;;;;;;;2.05;0.30;;;;;;;26.01;28.83;100675.56;10553904;28;20074;-77
2022/07/12 11:42:14;;;;;;;0.45;0.17;;;;;;;25.73;29.32;100686.97;10554530;28;20051;-78
2022/07/12 11:47:21;;;;;;;0.75;0.30;;;;;;;25.74;29.11;100673.38;10560938;28;20048;-77
2022/07/12 11:52:24;;;;;;;2.28;0.40;;;;;;;25.76;29.21;100676.78;10567751;28;20055;-78
2022/07/12 11:57:26;;;;;;;2.17;0.35;;;;;;;25.84;28.76;100670.75;10549088;22;20048;-85
2022/07/12 12:02:28;;;;;;;1.35;0.22;;;;;;;25.63;29.84;100671.59;10539923;28;20496;-85
2022/07/12 12:07:30;;;;;;;2.00;0.30;;;;;;;25.33;29.93;100677.72;10554829;28;20122;-85
2022/07/12 12:12:55;;;;;;;2.08;0.20;;;;;;;25.62;30.52;100671.72;10540589;28;20044;-85
2022/07/12 12:18:02;;;;;;;0.35;0.20;;;;;;;25.83;29.43;100666.38;10542067;28;20105;-86
2022/07/12 12:23:23;;;;;;;1.90;0.20;;;;;;;25.45;29.18;100675.81;10552440;28;20048;-86
2022/07/12 12:28:41;;;;;;;3.05;0.20;;;;;;;25.42;29.85;100673.41;10538769;28;20043;-86
2022/07/12 12:33:46;;;;;;;1.75;0.32;;;;;;;26.29;28.32;100660.53;10529482;28;20059;-84
2022/07/12 12:39:02;;;;;;;0.70;0.20;;;;;;;26.94;29.03;100666.47;10543837;28;20501;-84
2022/07/12 12:44:09;;;;;;;3.70;0.20;;;;;;;26.17;28.77;100662.47;10543820;28;20329;-85
2022/07/12 12:49:13;;;;;;;0.52;0.20;;;;;;;26.45;29.05;100675.41;10528071;28;20054;-85
2022/07/12 12:54:39;;;;;;;1.27;0.28;;;;;;;26.90;28.02;100656.94;10526645;28;20052;-85
2022/07/12 12:59:42;;;;;;;0.80;0.38;;;;;;;26.30;28.16;100656.88;10532403;28;20123;-86
2022/07/12 13:04:44;;;;;;;1.42;0.20;;;;;;;26.91;27.88;100659.50;10549221;28;20067;-84
2022/07/12 13:10:21;;;;;;;0.85;0.30;;;;;;;26.64;27.97;100659.28;10571058;28;20112;-85
2022/07/12 13:15:29;;;;;;;0.65;0.30;;;;;;;26.15;28.84;100655.50;10544623;28;20420;-85
2022/07/12 13:20:31;;;;;;;0.80;0.30;;;;;;;26.34;28.41;100661.00;10565536;28;20036;-84
2022/07/12 13:25:37;;;;;;;1.95;0.30;;;;;;;27.32;28.76;100644.09;10552437;28;20042;-83
2022/07/12 13:30:39;;;;;;;1.75;0.22;;;;;;;27.38;28.59;100635.44;10587836;28;20020;-84
2022/07/12 13:35:42;;;;;;;0.73;0.30;;;;;;;26.20;28.73;100650.56;10540676;28;20404;-85
2022/07/12 13:40:45;;;;;;;0.70;0.30;;;;;;;26.43;28.72;100645.84;10510217;28;20044;-86
2022/07/12 13:45:50;;;;;;;1.75;0.35;;;;;;;25.78;29.53;100642.53;10555151;28;20050;-85
2022/07/12 13:50:52;;;;;;;0.57;0.40;;;;;;;25.39;30.42;100654.81;10537975;28;20096;-85
2022/07/12 13:56:14;;;;;;;1.55;0.30;;;;;;;25.37;30.77;100643.34;10538165;28;20047;-84
2022/07/12 14:01:15;;;;;;;0.55;0.30;;;;;;;25.72;29.36;100634.97;10535710;28;20109;-85
2022/07/12 14:06:17;;;;;;;0.77;0.35;;;;;;;26.59;28.52;100640.81;10554309;28;20044;-84
2022/07/12 14:11:19;;;;;;;0.50;0.20;;;;;;;26.51;28.35;100634.41;10553529;28;20047;-84
2022/07/12 14:16:22;;;;;;;1.17;0.20;;;;;;;26.31;28.56;100631.63;10517980;28;20070;-84
2022/07/12 14:21:24;;;;;;;2.05;0.20;;;;;;;26.61;28.63;100629.91;10537348;28;20051;-84
2022/07/12 14:26:25;;;;;;;0.52;0.30;;;;;;;26.92;28.71;100619.91;10555121;28;20048;-84
2022/07/12 14:31:27;;;;;;;1.60;0.30;;;;;;;26.99;28.58;100621.03;10551951;28;20085;-83
2022/07/12 14:36:29;;;;;;;1.88;0.30;;;;;;;26.50;28.60;100633.56;10533869;28;20138;-83
2022/07/12 14:41:30;;;;;;;1.10;0.30;;;;;;;26.61;29.34;100621.81;10536624;28;20139;-84
2022/07/12 14:46:33;;;;;;;0.57;0.38;;;;;;;26.71;28.44;100620.00;10538807;28;20051;-84
2022/07/12 14:51:35;;;;;;;0.50;0.30;;;;;;;26.79;28.34;100616.63;10542925;28;20036;-85
2022/07/12 14:56:37;;;;;;;1.45;0.30;;;;;;;26.67;28.84;100618.56;10546281;28;20048;-86
2022/07/12 15:01:39;;;;;;;1.17;0.40;;;;;;;27.26;27.90;100600.63;10564446;28;20040;-85
2022/07/12 15:06:41;;;;;;;0.50;0.35;;;;;;;27.71;26.87;100600.00;10548372;28;20048;-85
2022/07/12 15:11:43;;;;;;;1.00;0.30;;;;;;;27.48;27.47;100597.63;10550544;28;20061;-85
2022/07/12 15:16:45;;;;;;;1.55;0.22;;;;;;;27.81;27.03;100588.22;10547076;28;20040;-85
2022/07/12 15:21:47;;;;;;;3.90;0.45;;;;;;;27.64;26.95;100600.59;10565125;28;20032;-85
2022/07/12 15:26:49;;;;;;;0.20;0.20;;;;;;;27.25;28.05;100593.53;10562903;28;20048;-84
2022/07/12 15:31:50;;;;;;;1.75;0.20;;;;;;;26.97;28.50;100584.41;10566328;28;20046;-85
2022/07/12 15:36:55;;;;;;;0.80;0.22;;;;;;;26.23;29.54;100592.84;10554395;28;20084;-85
2022/07/12 15:41:58;;;;;;;0.67;0.43;;;;;;;27.01;28.88;100581.28;10578819;28;20048;-82
2022/07/12 15:46:59;;;;;;;1.17;0.20;;;;;;;28.09;27.64;100578.28;10595823;28;20046;-84
2022/07/12 15:57:21;;;;;;;0.60;0.35;;;;;;;28.56;26.85;100567.41;10552037;28;20078;-84
2022/07/12 16:02:23;;;;;;;1.30;0.35;;;;;;;28.45;27.06;100574.88;10552740;28;20065;-83
2022/07/12 16:07:27;;;;;;;1.95;0.30;;;;;;;27.29;28.57;100570.66;10543493;28;20580;-83
2022/07/12 16:12:30;;;;;;;0.52;0.28;;;;;;;27.48;28.15;100570.63;10539147;28;20048;-83
2022/07/12 16:17:32;;;;;;;1.08;0.20;;;;;;;27.47;28.52;100562.66;10537454;28;20048;-83
2022/07/12 16:22:33;;;;;;;1.70;0.40;;;;;;;26.82;28.76;100571.31;10537678;28;20052;-83
2022/07/12 16:27:35;;;;;;;0.93;0.38;;;;;;;26.44;29.55;100571.25;10554124;28;20052;-83
2022/07/12 16:32:39;;;;;;;0.47;0.28;;;;;;;26.25;30.19;100570.16;10554457;28;20046;-84
2022/07/12 16:37:40;;;;;;;0.40;0.20;;;;;;;26.43;29.62;100565.00;10554107;28;20052;-83
2022/07/12 16:42:42;;;;;;;1.52;0.30;;;;;;;25.73;30.43;100568.50;10551369;28;20051;-86
2022/07/12 16:47:44;;;;;;;1.52;0.57;;;;;;;25.66;30.60;100565.47;10535795;28;20048;-85
2022/07/12 16:52:46;;;;;;;1.35;0.40;;;;;;;25.75;31.02;100555.72;10534355;28;20039;-85
2022/07/12 16:57:48;;;;;;;0.77;0.40;;;;;;;25.84;30.57;100557.66;10551211;28;20126;-85
2022/07/12 17:02:50;;;;;;;3.83;0.52;;;;;;;25.65;30.52;100567.31;10550417;28;20529;-86
2022/07/12 17:07:52;;;;;;;1.42;0.40;;;;;;;25.61;30.76;100570.41;10554962;28;20067;-85
2022/07/12 17:12:54;;;;;;;0.30;0.30;;;;;;;25.51;31.14;100561.41;10530200;28;20044;-85
2022/07/12 17:17:56;;;;;;;1.13;0.30;;;;;;;25.59;31.39;100545.47;10534941;28;20048;-85
2022/07/12 17:22:57;;;;;;;0.47;0.32;;;;;;;25.60;30.60;100549.84;10532908;28;20458;-84
2022/07/12 17:27:59;;;;;;;0.75;0.60;;;;;;;25.26;31.88;100559.97;10552805;28;20070;-83
2022/07/12 17:33:01;;;;;;;1.10;0.63;;;;;;;25.08;31.85;100560.53;10537085;28;20036;-83
2022/07/12 17:38:03;;;;;;;2.70;0.47;;;;;;;24.84;31.99;100557.19;10552790;28;20052;-84
2022/07/12 17:43:05;;;;;;;0.77;0.50;;;;;;;24.85;32.29;100557.06;10537769;28;20102;-83
2022/07/12 17:48:07;;;;;;;0.50;0.30;;;;;;;24.80;32.83;100556.59;10534573;28;20420;-84
2022/07/12 17:53:09;;;;;;;1.48;0.60;;;;;;;24.77;33.70;100551.44;10518116;28;20044;-82
2022/07/12 18:03:31;;;;;;;0.70;0.40;;;;;;;24.31;33.94;100565.09;10542590;28;20097;-72
2022/07/12 18:08:33;;;;;;;1.65;0.40;;;;;;;24.54;33.81;100553.34;10542193;28;20063;-72
2022/07/12 18:18:55;;;;;;;2.10;0.45;;;;;;;24.46;34.24;100550.44;10545901;28;20127;-72
2022/07/12 18:24:01;;;;;;;0.63;0.40;;;;;;;24.45;34.76;100551.41;10550239;28;20047;-72
2022/07/12 18:29:03;;;;;;;1.10;0.47;;;;;;;24.35;35.35;100547.75;10552306;28;20058;-72
2022/07/12 18:34:05;;;;;;;2.17;0.50;;;;;;;24.07;36.28;100549.94;10532677;28;20055;-72
2022/07/12 18:39:08;;;;;;;1.38;0.50;;;;;;;23.85;36.96;100552.63;10533162;28;20052;-72
2022/07/12 18:44:09;;;;;;;0.98;0.50;;;;;;;23.48;37.79;100544.75;10551590;28;20060;-72
2022/07/12 18:49:13;;;;;;;1.42;0.50;;;;;;;23.36;38.41;100545.72;10532368;28;20044;-72
2022/07/12 18:54:15;;;;;;;2.00;0.60;;;;;;;23.01;39.36;100541.19;10550399;28;20041;-73
2022/07/12 18:59:16;;;;;;;2.03;0.57;;;;;;;23.00;39.13;100544.88;10549103;28;20044;-72
2022/07/12 19:04:18;;;;;;;0.50;0.47;;;;;;;22.92;39.49;100548.13;10534217;28;20099;-72
2022/07/12 19:09:20;;;;;;;1.23;0.50;;;;;;;22.73;39.71;100547.75;10531569;28;20134;-72
2022/07/12 19:14:22;;;;;;;0.90;0.40;;;;;;;22.65;39.83;100547.47;10549395;28;20515;-72
2022/07/12 19:19:26;;;;;;;1.65;0.52;;;;;;;22.49;39.93;100553.13;10547925;28;20048;-73
2022/07/12 19:24:28;;;;;;;0.98;0.52;;;;;;;22.14;40.82;100548.50;10550588;28;20094;-72
2022/07/12 19:29:30;;;;;;;0.85;0.50;;;;;;;22.00;41.21;100555.75;10548317;28;20066;-73
2022/07/12 19:34:32;;;;;;;1.38;0.45;;;;;;;21.88;41.44;100550.31;10528809;28;20039;-72
2022/07/12 19:39:34;;;;;;;0.50;0.43;;;;;;;21.91;41.31;100558.13;10549509;28;20044;-74
2022/07/12 19:44:36;;;;;;;1.20;0.50;;;;;;;21.81;41.83;100562.41;10533955;28;20046;-75
2022/07/12 19:49:41;;;;;;;1.38;0.50;;;;;;;21.80;41.93;100565.19;10554384;28;20354;-75
2022/07/12 19:54:43;;;;;;;1.35;0.40;;;;;;;21.67;42.13;100568.72;10552362;28;20040;-74
2022/07/12 19:59:47;;;;;;;3.33;0.50;;;;;;;21.42;42.77;100563.34;10552678;28;20131;-74
2022/07/12 20:04:51;;;;;;;1.03;0.60;;;;;;;21.49;42.80;100567.31;10533769;28;20048;-74
2022/07/12 20:09:53;;;;;;;0.82;0.43;;;;;;;21.42;42.90;100572.22;10536981;28;20040;-75
2022/07/12 20:15:02;;;;;;;0.98;0.50;;;;;;;21.51;42.74;100576.06;10544481;28;20059;-73
2022/07/12 20:20:09;;;;;;;1.05;0.40;;;;;;;21.37;43.00;100578.84;10555791;28;20043;-75
2022/07/12 20:25:11;;;;;;;1.35;0.50;;;;;;;21.29;43.10;100575.81;10533867;28;20040;-74
2022/07/12 20:30:13;;;;;;;1.65;0.50;;;;;;;21.30;43.21;100577.53;10554979;28;20055;-76
2022/07/12 20:35:15;;;;;;;1.00;0.45;;;;;;;21.14;43.48;100573.22;10537778;28;20048;-75
2022/07/12 20:40:20;;;;;;;1.83;0.40;;;;;;;21.22;43.16;100572.69;10536374;28;20072;-75
2022/07/12 20:45:22;;;;;;;1.10;0.50;;;;;;;20.99;43.64;100560.03;10553872;28;20039;-74
2022/07/12 20:50:24;;;;;;;1.40;0.40;;;;;;;21.11;43.30;100567.22;10536733;28;20501;-75
2022/07/12 20:55:26;;;;;;;1.02;0.52;;;;;;;21.14;43.54;100567.00;10557972;28;20051;-75
2022/07/12 21:00:27;;;;;;;1.15;0.50;;;;;;;21.25;43.03;100571.63;10539273;28;20047;-75
2022/07/12 21:05:29;;;;;;;0.65;0.40;;;;;;;21.10;43.32;100571.69;10536954;28;20418;-74
2022/07/12 21:10:35;;;;;;;1.83;0.50;;;;;;;20.97;43.84;100568.13;10538232;28;20048;-74
2022/07/12 21:15:37;;;;;;;1.37;0.40;;;;;;;20.90;43.78;100572.19;10541085;28;20036;-75
2022/07/12 21:20:38;;;;;;;0.75;0.40;;;;;;;20.85;44.43;100563.59;10535138;28;20043;-74
2022/07/12 21:25:42;;;;;;;1.42;0.57;;;;;;;20.74;44.14;100571.47;10532741;28;20079;-75
2022/07/12 21:30:44;;;;;;;2.00;0.60;;;;;;;20.84;44.02;100567.22;10534226;28;20040;-74
2022/07/12 21:35:46;;;;;;;2.30;0.45;;;;;;;20.82;43.86;100569.16;10532982;28;20076;-74
2022/07/12 21:40:48;;;;;;;1.30;0.50;;;;;;;20.76;43.82;100570.44;10533268;28;20523;-74
2022/07/12 21:45:50;;;;;;;0.52;0.32;;;;;;;20.76;43.84;100566.88;10548634;28;20047;-74
2022/07/12 21:50:52;;;;;;;1.23;0.57;;;;;;;20.63;44.41;100572.19;10548987;28;20123;-75
2022/07/12 21:55:54;;;;;;;2.20;0.38;;;;;;;20.55;44.63;100567.34;10529277;28;20089;-73
2022/07/12 22:00:56;;;;;;;0.55;0.40;;;;;;;20.64;44.06;100573.91;10534557;28;20090;-74
2022/07/12 22:05:57;;;;;;;1.33;0.65;;;;;;;20.53;44.86;100569.22;10530255;28;20048;-74
2022/07/12 22:10:59;;;;;;;1.33;0.60;;;;;;;20.48;44.71;100583.84;10531305;28;20055;-75
2022/07/12 22:16:02;;;;;;;0.75;0.30;;;;;;;20.54;44.62;100584.31;10532188;28;20056;-74
2022/07/12 22:21:04;;;;;;;2.50;0.50;;;;;;;20.31;44.97;100585.75;10533826;28;20048;-74
2022/07/12 22:26:06;;;;;;;1.17;0.52;;;;;;;20.44;45.07;100588.50;10528506;28;20520;-74
2022/07/12 22:31:08;;;;;;;0.95;0.50;;;;;;;20.19;45.65;100577.66;10547768;28;20071;-74
2022/07/12 22:36:09;;;;;;;0.70;0.30;;;;;;;20.07;45.73;100577.47;10546821;28;20044;-74
2022/07/12 22:41:11;;;;;;;0.38;0.30;;;;;;;20.22;45.42;100580.13;10547839;28;20050;-77
2022/07/12 22:46:13;;;;;;;1.17;0.50;;;;;;;20.03;45.89;100581.28;10554483;28;20058;-76
2022/07/12 22:56:35;;;;;;;0.63;0.47;;;;;;;19.97;46.27;100583.50;10525757;28;20138;-73
2022/07/12 23:01:37;;;;;;;0.57;0.40;;;;;;;19.82;46.48;100569.28;10525736;28;20044;-73
2022/07/12 23:06:39;;;;;;;0.43;0.40;;;;;;;19.80;46.84;100584.53;10530197;28;20078;-73
2022/07/12 23:11:41;;;;;;;1.02;0.40;;;;;;;19.66;47.28;100596.03;10534431;28;20074;-73
2022/07/12 23:16:42;;;;;;;3.65;0.55;;;;;;;19.67;46.84;100583.56;10533330;28;20477;-73
2022/07/12 23:21:44;;;;;;;1.42;0.50;;;;;;;19.71;46.67;100585.09;10550529;28;20044;-72
2022/07/12 23:26:46;;;;;;;1.00;0.50;;;;;;;19.59;47.16;100573.31;10536143;28;20131;-72
2022/07/12 23:31:48;;;;;;;0.50;0.47;;;;;;;19.34;47.71;100569.44;10533601;28;20162;-73
2022/07/12 23:36:50;;;;;;;1.40;0.40;;;;;;;19.15;48.30;100566.16;10532057;28;20079;-72
2022/07/12 23:41:51;;;;;;;1.58;0.60;;;;;;;19.11;48.72;100567.28;10551330;28;20037;-73
2022/07/12 23:46:53;;;;;;;0.30;0.28;;;;;;;18.87;49.40;100585.56;10551167;28;20048;-73
2022/07/12 23:51:55;;;;;;;1.73;0.50;;;;;;;18.59;50.35;100587.13;10535034;28;20143;-73
2022/07/12 23:56:57;;;;;;;0.50;0.50;;;;;;;18.40;51.20;100597.06;10558237;22;20098;-71
